Time;durP1;ratioP1;P1;durP2;ratioP2;P2;SDS_P1;SDS_P2;PMS_P1;PMS_P2;Temp;Humidity;BMP_temperature;BMP_pressure;BME280_temperature;BME280_humidity;BME280_pressure;Samples;Min_cycle;Max_cycle;Signal;HPM_P1;HPM_P2
2022/09/20 00:00:42;;;;;;;;;;;17.50;99.90;;;;;;4935325;29;20009;-72
2022/09/20 00:03:09;;;;;;;;;;;17.40;99.90;;;;;;4935793;29;20452;-72
2022/09/20 00:05:37;;;;;;;;;;;17.50;99.90;;;;;;4935787;29;20001;-72
2022/09/20 00:08:05;;;;;;;;;;;17.50;99.90;;;;;;4936163;29;19925;-72
2022/09/20 00:10:38;;;;;;;;;;;17.50;99.90;;;;;;4935363;29;19911;-72
2022/09/20 00:13:06;;;;;;;;;;;17.50;99.90;;;;;;4935594;29;20389;-72
2022/09/20 00:15:32;;;;;;;;;;;17.50;99.90;;;;;;4935723;29;19922;-73
2022/09/20 00:17:59;;;;;;;;;;;17.40;99.90;;;;;;4935810;29;20433;-73
2022/09/20 00:20:26;;;;;;;;;;;17.30;99.90;;;;;;4935410;29;19911;-72
2022/09/20 00:22:53;;;;;;;;;;;17.20;99.90;;;;;;4935860;29;19918;-73
2022/09/20 00:25:21;;;;;;;;;;;17.30;99.90;;;;;;4935598;29;20445;-73
2022/09/20 00:27:48;;;;;;;;;;;17.50;99.90;;;;;;4935866;29;19933;-73
2022/09/20 00:30:14;;;;;;;;;;;17.60;99.90;;;;;;4935272;29;19957;-71
2022/09/20 00:32:41;;;;;;;;;;;17.50;99.90;;;;;;4935316;29;19916;-73
2022/09/20 00:35:09;;;;;;;;;;;17.50;99.90;;;;;;4935628;29;20013;-73
2022/09/20 00:37:40;;;;;;;;;;;17.60;99.90;;;;;;4936215;29;19915;-73
2022/09/20 00:40:09;;;;;;;;;;;17.60;99.90;;;;;;4935868;29;19910;-72
2022/09/20 00:42:35;;;;;;;;;;;17.80;99.90;;;;;;4935930;29;19919;-72
2022/09/20 00:45:04;;;;;;;;;;;17.70;99.90;;;;;;4935725;29;19922;-69
2022/09/20 00:47:43;;;;;;;;;;;17.70;99.90;;;;;;4935821;29;20384;-73
2022/09/20 00:50:28;;;;;;;;;;;17.70;99.90;;;;;;4936175;29;19911;-70
2022/09/20 00:53:01;;;;;;;;;;;17.70;99.90;;;;;;4936426;29;19911;-72
2022/09/20 00:55:28;;;;;;;;;;;17.70;99.90;;;;;;4936575;29;20286;-72
2022/09/20 00:57:55;;;;;;;;;;;17.60;99.90;;;;;;4937267;29;19985;-72
2022/09/20 01:00:21;;;;;;;;;;;17.70;99.90;;;;;;4939529;29;20051;-72
2022/09/20 01:02:51;;;;;;;;;;;17.70;99.90;;;;;;4936168;29;20354;-73
2022/09/20 01:05:18;;;;;;;;;;;17.70;99.90;;;;;;4935118;29;20013;-74
2022/09/20 01:07:47;;;;;;;;;;;17.70;99.90;;;;;;4935283;29;20005;-72
2022/09/20 01:10:14;;;;;;;;;;;17.60;99.90;;;;;;4934786;29;19915;-72
2022/09/20 01:12:42;;;;;;;;;;;17.60;99.90;;;;;;4935166;29;20009;-72
2022/09/20 01:15:10;;;;;;;;;;;17.60;99.90;;;;;;4934401;29;19923;-72
2022/09/20 01:17:40;;;;;;;;;;;17.60;99.90;;;;;;4934654;29;19914;-72
2022/09/20 01:20:15;;;;;;;;;;;17.70;99.90;;;;;;4935249;29;19953;-69
2022/09/20 01:22:45;;;;;;;;;;;17.70;99.90;;;;;;4935889;29;19938;-71
2022/09/20 01:25:17;;;;;;;;;;;17.80;99.90;;;;;;4932211;29;19919;-72
2022/09/20 01:27:44;;;;;;;;;;;18.10;99.90;;;;;;4935008;29;19925;-70
2022/09/20 01:30:12;;;;;;;;;;;18.30;99.90;;;;;;4934633;29;19911;-72
2022/09/20 01:32:39;;;;;;;;;;;18.30;99.90;;;;;;4934882;29;19917;-71
2022/09/20 01:35:07;;;;;;;;;;;18.20;99.90;;;;;;4934394;29;19925;-71
2022/09/20 01:37:59;;;;;;;;;;;18.00;99.90;;;;;;4935083;29;19918;-72
2022/09/20 01:40:26;;;;;;;;;;;18.00;99.90;;;;;;4919419;29;20042;-72
2022/09/20 01:43:01;;;;;;;;;;;18.00;99.90;;;;;;4934526;29;20399;-72
2022/09/20 01:45:28;;;;;;;;;;;18.00;99.90;;;;;;4935202;29;20378;-73
2022/09/20 01:47:55;;;;;;;;;;;18.10;99.90;;;;;;4934900;29;19957;-71
2022/09/20 01:50:24;;;;;;;;;;;18.10;99.90;;;;;;4934737;29;20002;-72
2022/09/20 01:53:09;;;;;;;;;;;18.10;99.90;;;;;;4934714;29;20393;-71
2022/09/20 01:55:42;;;;;;;;;;;18.10;99.90;;;;;;4934639;29;19925;-72
2022/09/20 01:58:08;;;;;;;;;;;18.10;99.90;;;;;;4934706;29;20369;-72
2022/09/20 02:00:35;;;;;;;;;;;18.10;99.90;;;;;;4934308;29;19950;-70
2022/09/20 02:03:20;;;;;;;;;;;18.10;99.90;;;;;;4934087;29;20700;-71
2022/09/20 02:05:46;;;;;;;;;;;18.00;99.90;;;;;;4934693;29;20301;-72
2022/09/20 02:08:28;;;;;;;;;;;17.90;99.90;;;;;;4934496;29;20322;-69
2022/09/20 02:11:04;;;;;;;;;;;17.90;99.90;;;;;;4937890;29;19915;-69
2022/09/20 02:13:34;;;;;;;;;;;18.00;99.90;;;;;;4937553;29;20014;-71
2022/09/20 02:16:27;;;;;;;;;;;18.10;99.90;;;;;;4937983;29;19923;-70
2022/09/20 02:19:12;;;;;;;;;;;18.30;99.90;;;;;;4935956;29;20408;-70
2022/09/20 02:21:46;;;;;;;;;;;18.30;99.90;;;;;;4937932;29;20374;-71
2022/09/20 02:24:13;;;;;;;;;;;18.20;99.90;;;;;;4937489;29;20329;-71
2022/09/20 02:26:39;;;;;;;;;;;18.20;99.90;;;;;;4937771;29;19969;-70
2022/09/20 02:29:16;;;;;;;;;;;18.20;99.90;;;;;;4938248;29;19911;-71
2022/09/20 02:31:49;;;;;;;;;;;18.20;99.90;;;;;;4937888;29;19918;-69
2022/09/20 02:34:22;;;;;;;;;;;18.20;99.90;;;;;;4937262;29;19919;-72
2022/09/20 02:37:01;;;;;;;;;;;18.10;99.90;;;;;;4938077;29;19915;-69
2022/09/20 02:39:35;;;;;;;;;;;18.10;99.90;;;;;;4938134;29;19910;-68
2022/09/20 02:42:08;;;;;;;;;;;18.00;99.90;;;;;;4938365;29;19914;-68
2022/09/20 02:44:34;;;;;;;;;;;18.10;99.90;;;;;;4937662;29;19911;-71
2022/09/20 02:47:07;;;;;;;;;;;18.30;99.90;;;;;;4938817;29;20374;-71
2022/09/20 02:49:52;;;;;;;;;;;18.30;99.90;;;;;;4938485;29;20256;-69
2022/09/20 02:52:36;;;;;;;;;;;18.30;99.90;;;;;;4937123;29;20406;-69
2022/09/20 02:55:06;;;;;;;;;;;18.30;99.90;;;;;;4938393;29;19923;-73
2022/09/20 02:57:48;;;;;;;;;;;18.40;99.90;;;;;;4943648;29;20355;-71
2022/09/20 03:00:26;;;;;;;;;;;18.60;99.90;;;;;;4942593;29;19962;-72
2022/09/20 03:03:12;;;;;;;;;;;18.60;99.90;;;;;;4938579;29;19957;-69
2022/09/20 03:05:51;;;;;;;;;;;18.60;99.90;;;;;;4938673;29;19915;-71
2022/09/20 03:08:18;;;;;;;;;;;18.50;99.90;;;;;;4938314;29;20275;-70
2022/09/20 03:10:54;;;;;;;;;;;18.60;99.90;;;;;;4937785;29;19918;-68
2022/09/20 03:13:29;;;;;;;;;;;18.70;99.90;;;;;;4937483;29;19954;-71
2022/09/20 03:15:59;;;;;;;;;;;18.70;99.90;;;;;;4937975;29;19918;-71
2022/09/20 03:18:41;;;;;;;;;;;18.70;99.90;;;;;;4935582;29;19911;-69
2022/09/20 03:21:21;;;;;;;;;;;18.70;99.90;;;;;;4915740;29;19958;-69
2022/09/20 03:24:06;;;;;;;;;;;18.60;99.90;;;;;;4915922;29;19921;-72
2022/09/20 03:26:52;;;;;;;;;;;18.60;99.90;;;;;;4917171;29;19918;-71
2022/09/20 03:29:19;;;;;;;;;;;18.60;99.90;;;;;;4886639;29;19911;-70
2022/09/20 03:31:52;;;;;;;;;;;18.70;99.90;;;;;;4916719;29;19918;-69
2022/09/20 03:34:24;;;;;;;;;;;18.70;99.90;;;;;;4915966;29;19922;-71
2022/09/20 03:37:03;;;;;;;;;;;18.70;99.90;;;;;;4916544;29;19918;-69
2022/09/20 03:39:47;;;;;;;;;;;18.80;99.90;;;;;;4916620;29;19915;-68
2022/09/20 03:42:17;;;;;;;;;;;18.70;99.90;;;;;;4917797;29;19919;-70
2022/09/20 03:45:02;;;;;;;;;;;18.70;99.90;;;;;;4916421;29;19962;-68
2022/09/20 03:47:47;;;;;;;;;;;18.70;99.90;;;;;;4916593;29;19993;-70
2022/09/20 03:50:16;;;;;;;;;;;18.80;99.90;;;;;;4919317;29;19923;-72
2022/09/20 03:52:55;;;;;;;;;;;18.70;99.90;;;;;;4919398;29;20311;-72
2022/09/20 03:55:37;;;;;;;;;;;18.60;99.90;;;;;;4923776;29;20406;-71
2022/09/20 03:58:18;;;;;;;;;;;18.70;99.90;;;;;;4919505;29;20169;-68
2022/09/20 04:00:55;;;;;;;;;;;18.70;99.90;;;;;;4919451;29;20409;-71
2022/09/20 04:03:30;;;;;;;;;;;18.60;99.90;;;;;;4919981;29;20286;-68
2022/09/20 04:06:29;;;;;;;;;;;18.60;99.90;;;;;;4919772;29;19930;-70
2022/09/20 04:09:14;;;;;;;;;;;18.70;99.90;;;;;;4887539;29;20363;-71
2022/09/20 04:11:50;;;;;;;;;;;18.60;99.90;;;;;;4919328;29;20108;-69
2022/09/20 04:14:24;;;;;;;;;;;18.70;99.90;;;;;;4918992;29;20377;-70
2022/09/20 04:16:51;;;;;;;;;;;18.70;99.90;;;;;;4919475;29;20320;-69
2022/09/20 04:19:22;;;;;;;;;;;18.60;99.90;;;;;;4932802;29;19938;-69
2022/09/20 04:21:57;;;;;;;;;;;18.60;99.90;;;;;;4938359;29;19939;-69
2022/09/20 04:24:27;;;;;;;;;;;18.60;99.90;;;;;;4937852;29;19938;-70
2022/09/20 04:27:03;;;;;;;;;;;18.50;99.90;;;;;;4937615;29;19926;-69
2022/09/20 04:29:53;;;;;;;;;;;18.50;99.90;;;;;;4937319;29;20232;-68
2022/09/20 04:32:24;;;;;;;;;;;18.50;99.90;;;;;;4917281;29;19918;-69
2022/09/20 04:37:42;;;;;;;;;;;18.50;99.90;;;;;;4937287;29;19922;-68
2022/09/20 04:40:28;;;;;;;;;;;18.40;99.90;;;;;;4953338;29;19922;-70
2022/09/20 04:42:55;;;;;;;;;;;18.40;99.90;;;;;;4953093;29;19918;-70
2022/09/20 04:45:21;;;;;;;;;;;18.50;99.90;;;;;;4937809;29;20215;-71
2022/09/20 04:48:03;;;;;;;;;;;18.50;99.90;;;;;;4937584;29;19915;-68
2022/09/20 04:50:50;;;;;;;;;;;18.50;99.90;;;;;;4937360;29;19969;-69
2022/09/20 04:53:17;;;;;;;;;;;18.50;99.90;;;;;;4936440;29;19921;-68
2022/09/20 04:55:53;;;;;;;;;;;18.50;99.90;;;;;;4939261;29;19926;-71
2022/09/20 04:58:31;;;;;;;;;;;18.50;99.90;;;;;;4935538;29;19918;-70
2022/09/20 05:01:15;;;;;;;;;;;18.50;99.90;;;;;;4934878;29;19923;-72
2022/09/20 05:03:56;;;;;;;;;;;18.50;99.90;;;;;;4934760;29;20410;-68
2022/09/20 05:06:35;;;;;;;;;;;18.40;99.90;;;;;;4935163;29;19911;-69
2022/09/20 05:09:08;;;;;;;;;;;18.30;99.90;;;;;;4934891;29;19962;-68
2022/09/20 05:11:55;;;;;;;;;;;18.30;99.90;;;;;;4934877;29;19915;-68
2022/09/20 05:14:25;;;;;;;;;;;18.30;99.90;;;;;;4934149;29;20374;-69
2022/09/20 05:17:05;;;;;;;;;;;18.20;99.90;;;;;;4934706;29;19974;-70
2022/09/20 05:19:42;;;;;;;;;;;18.20;99.90;;;;;;4935365;29;20286;-69
2022/09/20 05:22:35;;;;;;;;;;;18.30;99.90;;;;;;4934865;29;19917;-70
2022/09/20 05:25:01;;;;;;;;;;;18.20;99.90;;;;;;4919601;29;19919;-69
2022/09/20 05:27:43;;;;;;;;;;;18.10;99.90;;;;;;4934769;29;19910;-71
2022/09/20 05:30:19;;;;;;;;;;;18.10;99.90;;;;;;4934711;29;19914;-68
2022/09/20 05:32:51;;;;;;;;;;;18.10;99.90;;;;;;4934690;29;19942;-71
2022/09/20 05:35:33;;;;;;;;;;;18.20;99.90;;;;;;4934986;29;20262;-69
2022/09/20 05:38:22;;;;;;;;;;;18.10;99.90;;;;;;4936077;29;19921;-69
2022/09/20 05:40:59;;;;;;;;;;;18.10;99.90;;;;;;4935534;29;20001;-69
2022/09/20 05:43:30;;;;;;;;;;;18.00;99.90;;;;;;4938468;29;20347;-69
2022/09/20 05:46:10;;;;;;;;;;;18.00;99.90;;;;;;4940423;29;20277;-70
2022/09/20 05:48:44;;;;;;;;;;;18.00;99.90;;;;;;4940895;29;19946;-71
2022/09/20 05:51:29;;;;;;;;;;;18.00;99.90;;;;;;4941757;29;20325;-70
2022/09/20 05:54:02;;;;;;;;;;;17.90;99.90;;;;;;4939298;29;20388;-70
2022/09/20 05:56:34;;;;;;;;;;;17.90;99.90;;;;;;4938703;29;19973;-72
2022/09/20 05:59:12;;;;;;;;;;;17.90;99.90;;;;;;4938019;29;19941;-71
2022/09/20 06:01:41;;;;;;;;;;;17.90;99.90;;;;;;4921622;29;19915;-70
2022/09/20 06:04:17;;;;;;;;;;;17.80;99.90;;;;;;4918671;29;20359;-69
2022/09/20 06:07:04;;;;;;;;;;;17.80;99.90;;;;;;4918880;29;20304;-69
2022/09/20 06:09:43;;;;;;;;;;;17.80;99.90;;;;;;4918253;29;20442;-70
2022/09/20 06:12:12;;;;;;;;;;;17.70;99.90;;;;;;4918998;29;20371;-70
2022/09/20 06:14:45;;;;;;;;;;;17.60;99.90;;;;;;4918010;29;19925;-72
2022/09/20 06:17:27;;;;;;;;;;;17.70;99.90;;;;;;4918568;29;19915;-73
2022/09/20 06:19:54;;;;;;;;;;;17.60;99.90;;;;;;4921899;29;20067;-72
2022/09/20 06:22:33;;;;;;;;;;;17.70;99.90;;;;;;4918622;29;20378;-69
2022/09/20 06:25:11;;;;;;;;;;;17.70;99.90;;;;;;4918722;29;19960;-70
2022/09/20 06:27:44;;;;;;;;;;;17.60;99.90;;;;;;4918626;29;19961;-71
2022/09/20 06:30:18;;;;;;;;;;;17.60;99.90;;;;;;4917816;29;19970;-69
2022/09/20 06:32:56;;;;;;;;;;;17.50;99.90;;;;;;4918034;29;19922;-68
2022/09/20 06:35:26;;;;;;;;;;;17.50;99.90;;;;;;4917903;29;19923;-69
2022/09/20 06:43:30;;;;;;;;;;;17.40;99.90;;;;;;4917585;29;19986;-71
2022/09/20 06:45:57;;;;;;;;;;;17.40;99.90;;;;;;4917808;29;20371;-71
2022/09/20 06:48:24;;;;;;;;;;;17.40;99.90;;;;;;4918007;29;19971;-72
2022/09/20 06:50:51;;;;;;;;;;;17.40;99.90;;;;;;4916420;29;19911;-69
2022/09/20 06:53:21;;;;;;;;;;;17.30;99.90;;;;;;4917325;29;19919;-72
2022/09/20 06:55:47;;;;;;;;;;;17.30;99.90;;;;;;4916535;29;20005;-70
2022/09/20 06:58:14;;;;;;;;;;;17.30;99.90;;;;;;4916040;29;19919;-71
2022/09/20 07:00:41;;;;;;;;;;;17.30;99.90;;;;;;4915803;29;19958;-69
2022/09/20 07:03:08;;;;;;;;;;;17.20;99.90;;;;;;4915631;29;19915;-71
2022/09/20 07:05:35;;;;;;;;;;;17.20;99.90;;;;;;4914410;29;19919;-72
2022/09/20 07:08:02;;;;;;;;;;;17.10;99.90;;;;;;4916163;29;20009;-70
2022/09/20 07:10:29;;;;;;;;;;;17.10;99.90;;;;;;4916708;29;19923;-73
2022/09/20 07:12:57;;;;;;;;;;;17.10;99.90;;;;;;4923376;29;19915;-69
2022/09/20 07:15:24;;;;;;;;;;;17.10;99.90;;;;;;4919160;29;19923;-72
2022/09/20 07:17:50;;;;;;;;;;;17.00;99.90;;;;;;4917996;29;19911;-73
2022/09/20 07:20:19;;;;;;;;;;;17.00;99.90;;;;;;4933541;29;20079;-71
2022/09/20 07:22:46;;;;;;;;;;;17.00;99.90;;;;;;4934536;29;20417;-72
2022/09/20 07:25:13;;;;;;;;;;;17.00;99.90;;;;;;4934412;29;19973;-71
2022/09/20 07:27:39;;;;;;;;;;;16.90;99.90;;;;;;4934709;29;19914;-68
2022/09/20 07:30:07;;;;;;;;;;;16.90;99.90;;;;;;4934131;29;20286;-69
2022/09/20 07:32:33;;;;;;;;;;;16.90;99.90;;;;;;4934485;29;19911;-71
2022/09/20 07:35:01;;;;;;;;;;;16.80;99.90;;;;;;4934466;29;20382;-73
2022/09/20 07:37:28;;;;;;;;;;;16.80;99.90;;;;;;4934487;29;20289;-70
2022/09/20 07:39:54;;;;;;;;;;;16.80;99.90;;;;;;4934567;29;20263;-70
2022/09/20 07:42:21;;;;;;;;;;;16.80;99.90;;;;;;4934132;29;19911;-70
2022/09/20 07:44:49;;;;;;;;;;;16.70;99.90;;;;;;4933587;29;19915;-72
2022/09/20 07:47:17;;;;;;;;;;;16.70;99.90;;;;;;4934338;29;19954;-70
2022/09/20 07:49:43;;;;;;;;;;;16.70;99.90;;;;;;4934343;29;19918;-69
2022/09/20 07:52:10;;;;;;;;;;;16.70;99.90;;;;;;4933796;29;19966;-73
2022/09/20 07:54:37;;;;;;;;;;;16.60;99.90;;;;;;4934121;29;19919;-69
2022/09/20 07:57:04;;;;;;;;;;;16.60;99.90;;;;;;4932138;29;20267;-72
2022/09/20 07:59:31;;;;;;;;;;;16.60;99.90;;;;;;4933879;29;20013;-70
2022/09/20 08:01:59;;;;;;;;;;;16.60;99.90;;;;;;4934316;29;20331;-69
2022/09/20 08:04:27;;;;;;;;;;;16.60;99.90;;;;;;4933704;29;19911;-72
2022/09/20 08:06:54;;;;;;;;;;;16.60;99.90;;;;;;4934018;29;19919;-70
2022/09/20 08:09:20;;;;;;;;;;;16.50;99.90;;;;;;4933542;29;19962;-70
2022/09/20 08:11:48;;;;;;;;;;;16.50;99.90;;;;;;4934004;29;20375;-69
2022/09/20 08:14:17;;;;;;;;;;;16.50;99.90;;;;;;4933298;29;19918;-69
2022/09/20 08:16:47;;;;;;;;;;;16.50;99.90;;;;;;4933776;29;19918;-69
2022/09/20 08:19:15;;;;;;;;;;;16.50;99.90;;;;;;4933410;29;19914;-73
2022/09/20 08:21:43;;;;;;;;;;;16.50;99.90;;;;;;4933524;29;19918;-69
2022/09/20 08:24:10;;;;;;;;;;;16.50;99.90;;;;;;4933045;29;19958;-71
2022/09/20 08:26:36;;;;;;;;;;;16.50;99.90;;;;;;4933931;29;19914;-72
2022/09/20 08:29:04;;;;;;;;;;;16.50;99.90;;;;;;4933285;29;19953;-68
2022/09/20 08:31:35;;;;;;;;;;;16.40;99.90;;;;;;4948100;29;19919;-70
2022/09/20 08:34:07;;;;;;;;;;;16.40;99.90;;;;;;4933106;29;20013;-70
2022/09/20 08:36:35;;;;;;;;;;;16.50;99.90;;;;;;4933301;29;19919;-70
2022/09/20 08:39:02;;;;;;;;;;;16.40;99.90;;;;;;4932375;29;20283;-70
2022/09/20 08:41:32;;;;;;;;;;;16.40;99.90;;;;;;4933473;29;19915;-71
2022/09/20 08:44:23;;;;;;;;;;;16.40;99.90;;;;;;4933019;29;19912;-70
2022/09/20 08:46:55;;;;;;;;;;;16.40;99.90;;;;;;4933804;29;19987;-70
2022/09/20 08:49:25;;;;;;;;;;;16.40;99.90;;;;;;4935310;29;19914;-70
2022/09/20 08:51:53;;;;;;;;;;;16.40;99.90;;;;;;4937211;29;19958;-70
2022/09/20 08:54:23;;;;;;;;;;;16.40;99.90;;;;;;4933140;29;19911;-71
2022/09/20 08:56:50;;;;;;;;;;;16.30;99.90;;;;;;4933379;29;19918;-69
2022/09/20 08:59:18;;;;;;;;;;;16.30;99.90;;;;;;4932547;29;19970;-69
2022/09/20 09:01:49;;;;;;;;;;;16.30;99.90;;;;;;4931124;29;19970;-69
2022/09/20 09:04:15;;;;;;;;;;;16.40;99.90;;;;;;4932543;29;19955;-72
2022/09/20 09:06:43;;;;;;;;;;;16.30;99.90;;;;;;4927861;29;19946;-72
2022/09/20 09:09:24;;;;;;;;;;;16.40;99.90;;;;;;4915055;29;20010;-72
2022/09/20 09:11:55;;;;;;;;;;;16.30;99.90;;;;;;4915628;29;19919;-72
2022/09/20 09:17:11;;;;;;;;;;;16.30;99.90;;;;;;4916455;29;19994;-71
2022/09/20 09:19:51;;;;;;;;;;;16.30;99.90;;;;;;4931859;29;19918;-70
2022/09/20 09:22:19;;;;;;;;;;;16.30;99.90;;;;;;4934256;29;19919;-70
2022/09/20 09:25:05;;;;;;;;;;;16.30;99.90;;;;;;4934887;29;19911;-69
2022/09/20 09:27:33;;;;;;;;;;;16.30;99.90;;;;;;4934479;29;19954;-71
2022/09/20 09:30:00;;;;;;;;;;;16.30;99.90;;;;;;4934757;29;19918;-69
2022/09/20 09:32:29;;;;;;;;;;;16.30;99.90;;;;;;4933783;29;19980;-71
2022/09/20 09:35:18;;;;;;;;;;;16.30;99.90;;;;;;4934478;29;20454;-69
2022/09/20 09:37:58;;;;;;;;;;;16.30;99.90;;;;;;4934880;29;19922;-69
2022/09/20 09:40:25;;;;;;;;;;;16.30;99.90;;;;;;4934802;29;19969;-68
2022/09/20 09:42:57;;;;;;;;;;;16.30;99.90;;;;;;4933630;29;20024;-70
2022/09/20 09:45:29;;;;;;;;;;;16.30;99.90;;;;;;4934449;29;19945;-71
2022/09/20 09:47:56;;;;;;;;;;;16.30;99.90;;;;;;4934557;29;19918;-70
2022/09/20 09:50:29;;;;;;;;;;;16.30;99.90;;;;;;4934388;29;19915;-69
2022/09/20 09:53:15;;;;;;;;;;;16.30;99.90;;;;;;4933573;29;19925;-70
2022/09/20 09:55:51;;;;;;;;;;;16.30;99.90;;;;;;4934283;29;20374;-69
2022/09/20 09:58:35;;;;;;;;;;;16.30;99.90;;;;;;4934319;29;19926;-70
2022/09/20 10:01:02;;;;;;;;;;;16.20;99.90;;;;;;4934215;29;19931;-69
2022/09/20 10:03:35;;;;;;;;;;;16.20;99.90;;;;;;4933275;29;19927;-70
2022/09/20 10:06:14;;;;;;;;;;;16.20;99.90;;;;;;4934176;29;19977;-69
2022/09/20 10:08:59;;;;;;;;;;;16.20;99.90;;;;;;4934424;29;19922;-72
2022/09/20 10:11:36;;;;;;;;;;;16.20;99.90;;;;;;4933737;29;19923;-71
2022/09/20 10:14:07;;;;;;;;;;;16.20;99.90;;;;;;4933780;29;19959;-72
2022/09/20 10:16:36;;;;;;;;;;;16.20;99.90;;;;;;4934253;29;19931;-70
2022/09/20 10:19:12;;;;;;;;;;;16.20;99.90;;;;;;4933571;29;19911;-70
2022/09/20 10:22:00;;;;;;;;;;;16.20;99.90;;;;;;4934208;29;19933;-71
2022/09/20 10:24:30;;;;;;;;;;;16.20;99.90;;;;;;4934414;29;19919;-70
2022/09/20 10:27:06;;;;;;;;;;;16.20;99.90;;;;;;4935068;29;19911;-69
2022/09/20 10:29:35;;;;;;;;;;;16.20;99.90;;;;;;4939051;29;19919;-71
2022/09/20 10:32:20;;;;;;;;;;;16.20;99.90;;;;;;4935373;29;19919;-69
2022/09/20 10:34:51;;;;;;;;;;;16.20;99.90;;;;;;4935589;29;20064;-71
2022/09/20 10:37:39;;;;;;;;;;;16.20;99.90;;;;;;4935575;29;20005;-73
2022/09/20 10:43:13;;;;;;;;;;;16.20;99.90;;;;;;4935821;29;19914;-71
2022/09/20 10:43:36;;;;;;;;;;;16.20;99.90;;;;;;4934877;29;20393;-70
2022/09/20 10:46:20;;;;;;;;;;;16.10;99.90;;;;;;4935390;29;19946;-70
2022/09/20 10:48:52;;;;;;;;;;;16.10;99.90;;;;;;4936138;29;20079;-72
2022/09/20 10:51:24;;;;;;;;;;;16.10;99.90;;;;;;4937380;29;19910;-72
2022/09/20 10:54:00;;;;;;;;;;;16.20;99.90;;;;;;4935032;29;19953;-69
2022/09/20 10:56:35;;;;;;;;;;;16.20;99.90;;;;;;4919291;29;19923;-73
2022/09/20 10:59:04;;;;;;;;;;;16.20;99.90;;;;;;4915944;29;19927;-71
2022/09/20 11:01:31;;;;;;;;;;;16.10;99.90;;;;;;4915922;29;20381;-71
2022/09/20 11:04:20;;;;;;;;;;;16.10;99.90;;;;;;4915929;29;20310;-69
2022/09/20 11:06:51;;;;;;;;;;;16.10;99.90;;;;;;4915998;29;19915;-71
2022/09/20 11:09:20;;;;;;;;;;;16.10;99.90;;;;;;4915730;29;20370;-68
2022/09/20 11:11:52;;;;;;;;;;;16.10;99.90;;;;;;4916014;29;19911;-69
2022/09/20 11:14:28;;;;;;;;;;;16.10;99.90;;;;;;4916099;29;19911;-69
2022/09/20 11:16:59;;;;;;;;;;;16.10;99.90;;;;;;4915301;29;19919;-69
2022/09/20 11:19:47;;;;;;;;;;;16.10;99.90;;;;;;4930287;29;19961;-69
2022/09/20 11:22:26;;;;;;;;;;;16.10;99.90;;;;;;4934132;29;19915;-70
2022/09/20 11:24:55;;;;;;;;;;;16.10;99.90;;;;;;4934636;29;19970;-69
2022/09/20 11:27:25;;;;;;;;;;;16.10;99.90;;;;;;4934479;29;20414;-72
2022/09/20 11:29:52;;;;;;;;;;;16.10;99.90;;;;;;4934686;29;19973;-69
2022/09/20 11:32:41;;;;;;;;;;;16.00;99.90;;;;;;4933742;29;19918;-70
2022/09/20 11:35:10;;;;;;;;;;;16.10;99.90;;;;;;4934151;29;19915;-69
2022/09/20 11:37:46;;;;;;;;;;;16.10;99.90;;;;;;4934314;29;19911;-69
2022/09/20 11:40:32;;;;;;;;;;;16.00;99.90;;;;;;4934600;29;19997;-69
2022/09/20 11:43:01;;;;;;;;;;;16.00;99.90;;;;;;4932491;29;19919;-69
2022/09/20 11:45:28;;;;;;;;;;;16.00;99.90;;;;;;4933363;29;19911;-71
2022/09/20 11:48:02;;;;;;;;;;;15.90;99.90;;;;;;4932611;29;20294;-69
2022/09/20 11:50:34;;;;;;;;;;;16.00;99.90;;;;;;4932763;29;20262;-69
2022/09/20 11:53:19;;;;;;;;;;;15.90;99.90;;;;;;4932281;29;19947;-73
2022/09/20 11:55:49;;;;;;;;;;;15.90;99.90;;;;;;4932497;29;19919;-69
2022/09/20 11:58:21;;;;;;;;;;;15.90;99.90;;;;;;4932570;29;19910;-70
2022/09/20 12:00:49;;;;;;;;;;;15.90;99.90;;;;;;4931846;29;19970;-70
2022/09/20 12:03:25;;;;;;;;;;;16.00;99.90;;;;;;4932344;29;20005;-69
2022/09/20 12:05:56;;;;;;;;;;;15.90;99.90;;;;;;4936433;29;19941;-69
2022/09/20 12:08:37;;;;;;;;;;;15.90;99.90;;;;;;4940205;29;19911;-70
2022/09/20 12:11:13;;;;;;;;;;;15.90;99.90;;;;;;4934023;29;20006;-68
2022/09/20 12:13:51;;;;;;;;;;;15.90;99.90;;;;;;4933319;29;19922;-70
2022/09/20 12:16:38;;;;;;;;;;;15.90;99.90;;;;;;4933311;29;19922;-70
2022/09/20 12:19:07;;;;;;;;;;;15.90;99.90;;;;;;4933397;29;20412;-68
2022/09/20 12:21:51;;;;;;;;;;;15.90;99.90;;;;;;4933862;29;19915;-70
2022/09/20 12:24:19;;;;;;;;;;;15.90;99.90;;;;;;4933724;29;19915;-70
2022/09/20 12:26:46;;;;;;;;;;;15.90;99.90;;;;;;4933154;29;19965;-70
2022/09/20 12:29:22;;;;;;;;;;;15.90;99.90;;;;;;4933315;29;19918;-69
2022/09/20 12:31:54;;;;;;;;;;;15.90;99.90;;;;;;4933005;29;19918;-69
2022/09/20 12:34:21;;;;;;;;;;;15.90;99.90;;;;;;4933343;29;19921;-71
2022/09/20 12:36:54;;;;;;;;;;;15.90;99.90;;;;;;4933690;29;19914;-71
2022/09/20 12:39:28;;;;;;;;;;;15.90;99.90;;;;;;4933223;29;19926;-71
2022/09/20 12:42:00;;;;;;;;;;;15.90;99.90;;;;;;4932458;29;20039;-72
2022/09/20 12:44:37;;;;;;;;;;;15.90;99.90;;;;;;4933398;29;19911;-70
2022/09/20 12:47:09;;;;;;;;;;;15.90;99.90;;;;;;4932891;29;19914;-71
2022/09/20 12:55:28;;;;;;;;;;;15.90;99.90;;;;;;4933254;29;19929;-70
2022/09/20 12:57:57;;;;;;;;;;;15.90;99.90;;;;;;4933087;29;19921;-72
2022/09/20 13:00:46;;;;;;;;;;;15.90;99.90;;;;;;4932039;29;19927;-72
2022/09/20 13:03:33;;;;;;;;;;;15.90;99.90;;;;;;4929654;29;19922;-72
2022/09/20 13:08:48;;;;;;;;;;;15.90;99.90;;;;;;4933312;29;19911;-71
2022/09/20 13:11:27;;;;;;;;;;;15.90;99.90;;;;;;4932648;29;20037;-71
2022/09/20 13:13:58;;;;;;;;;;;15.90;99.90;;;;;;4932659;29;19965;-69
2022/09/20 13:16:37;;;;;;;;;;;15.90;99.90;;;;;;4932556;29;19923;-71
2022/09/20 13:19:14;;;;;;;;;;;15.90;99.90;;;;;;4932423;29;19936;-70
2022/09/20 13:21:43;;;;;;;;;;;15.90;99.90;;;;;;4932311;29;19915;-69
2022/09/20 13:24:15;;;;;;;;;;;15.90;99.90;;;;;;4932833;29;19917;-71
2022/09/20 13:26:44;;;;;;;;;;;15.90;99.90;;;;;;4932732;29;19917;-69
2022/09/20 13:29:22;;;;;;;;;;;15.90;99.90;;;;;;4932523;29;19915;-68
2022/09/20 13:31:48;;;;;;;;;;;15.90;99.90;;;;;;4932208;29;20002;-70
2022/09/20 13:34:37;;;;;;;;;;;15.90;99.90;;;;;;4932591;29;19986;-72
2022/09/20 13:37:04;;;;;;;;;;;15.80;99.90;;;;;;4933332;29;19926;-72
2022/09/20 13:39:36;;;;;;;;;;;15.90;99.90;;;;;;4932784;29;19911;-71
2022/09/20 13:42:18;;;;;;;;;;;15.90;99.90;;;;;;4932457;29;19939;-71
2022/09/20 13:44:45;;;;;;;;;;;16.00;99.90;;;;;;4932788;29;19958;-71
2022/09/20 13:47:26;;;;;;;;;;;15.90;99.90;;;;;;4934762;29;20381;-71
2022/09/20 13:49:53;;;;;;;;;;;15.90;99.90;;;;;;4933208;29;20018;-71
2022/09/20 13:52:26;;;;;;;;;;;15.90;99.90;;;;;;4932714;29;19911;-72
2022/09/20 13:54:54;;;;;;;;;;;15.90;99.90;;;;;;4932494;29;20430;-71
2022/09/20 13:57:25;;;;;;;;;;;15.90;99.90;;;;;;4932020;29;19929;-70
2022/09/20 13:59:52;;;;;;;;;;;16.00;99.90;;;;;;4932405;29;19989;-70
2022/09/20 14:02:25;;;;;;;;;;;16.00;99.90;;;;;;4932258;29;20023;-69
2022/09/20 14:04:54;;;;;;;;;;;16.00;99.90;;;;;;4934238;29;19911;-69
2022/09/20 14:07:24;;;;;;;;;;;15.90;99.90;;;;;;4936044;29;19914;-73
2022/09/20 14:09:52;;;;;;;;;;;16.00;99.90;;;;;;4936173;29;19915;-71
2022/09/20 14:12:23;;;;;;;;;;;15.90;99.90;;;;;;4935337;29;20444;-70
2022/09/20 14:14:53;;;;;;;;;;;16.00;99.90;;;;;;4936126;29;19943;-72
2022/09/20 14:17:21;;;;;;;;;;;16.00;99.90;;;;;;4935686;29;20298;-72
2022/09/20 14:19:50;;;;;;;;;;;15.90;99.90;;;;;;4935932;29;20383;-70
2022/09/20 14:22:22;;;;;;;;;;;16.00;99.90;;;;;;4935455;29;19917;-70
2022/09/20 14:25:16;;;;;;;;;;;16.00;99.90;;;;;;4935481;29;19921;-72
2022/09/20 14:27:42;;;;;;;;;;;16.00;99.90;;;;;;4933814;29;20006;-73
2022/09/20 14:30:29;;;;;;;;;;;16.00;99.90;;;;;;4935653;29;19915;-72
2022/09/20 14:32:56;;;;;;;;;;;16.00;99.90;;;;;;4935232;29;20362;-73
2022/09/20 14:35:23;;;;;;;;;;;16.10;99.90;;;;;;4933996;29;19978;-72
2022/09/20 14:37:50;;;;;;;;;;;16.10;99.90;;;;;;4935375;29;19958;-71
2022/09/20 14:40:26;;;;;;;;;;;16.10;99.90;;;;;;4935540;29;19918;-70
2022/09/20 14:42:55;;;;;;;;;;;16.10;99.90;;;;;;4935088;29;19921;-71
2022/09/20 14:45:27;;;;;;;;;;;16.20;99.90;;;;;;4935266;29;19954;-73
2022/09/20 14:47:56;;;;;;;;;;;16.20;99.90;;;;;;4935598;29;20010;-70
2022/09/20 14:50:28;;;;;;;;;;;16.20;99.90;;;;;;4935620;29;19922;-72
2022/09/20 14:53:06;;;;;;;;;;;16.20;99.90;;;;;;4941600;29;19919;-72
2022/09/20 14:55:34;;;;;;;;;;;16.20;99.90;;;;;;4938560;29;20536;-71
2022/09/20 14:58:04;;;;;;;;;;;16.30;99.90;;;;;;4935409;29;20005;-71
2022/09/20 15:00:46;;;;;;;;;;;16.30;99.90;;;;;;4934976;29;20379;-72
2022/09/20 15:03:15;;;;;;;;;;;16.30;99.90;;;;;;4934371;29;19938;-71
2022/09/20 15:05:42;;;;;;;;;;;16.30;99.90;;;;;;4935020;29;19930;-72
2022/09/20 15:08:11;;;;;;;;;;;16.30;99.90;;;;;;4934840;29;19915;-71
2022/09/20 15:10:37;;;;;;;;;;;16.30;99.90;;;;;;4934640;29;19921;-73